sensor_id;sensor_type;location;lat;lon;timestamp;P1;durP1;ratioP1;P2;durP2;ratioP2
60354;SDS011;46198;51.464;-0.066;2022-12-18T00:00:12;59.67;;;22.50;;
60354;SDS011;46198;51.464;-0.066;2022-12-18T00:02:42;58.05;;;21.83;;
60354;SDS011;46198;51.464;-0.066;2022-12-18T00:05:11;63.63;;;23.53;;
60354;SDS011;46198;51.464;-0.066;2022-12-18T00:07:39;51.17;;;19.87;;
60354;SDS011;46198;51.464;-0.066;2022-12-18T00:10:07;50.50;;;20.00;;
60354;SDS011;46198;51.464;-0.066;2022-12-18T00:12:35;57.43;;;20.63;;
60354;SDS011;46198;51.464;-0.066;2022-12-18T00:18:24;50.17;;;19.63;;
60354;SDS011;46198;51.464;-0.066;2022-12-18T00:23:46;56.93;;;20.97;;
60354;SDS011;46198;51.464;-0.066;2022-12-18T00:26:16;53.77;;;20.40;;
60354;SDS011;46198;51.464;-0.066;2022-12-18T00:28:48;54.73;;;20.70;;
60354;SDS011;46198;51.464;-0.066;2022-12-18T00:31:17;61.33;;;20.90;;
60354;SDS011;46198;51.464;-0.066;2022-12-18T00:33:48;59.08;;;22.10;;
60354;SDS011;46198;51.464;-0.066;2022-12-18T00:36:21;61.23;;;22.87;;
60354;SDS011;46198;51.464;-0.066;2022-12-18T00:38:51;57.47;;;21.70;;
60354;SDS011;46198;51.464;-0.066;2022-12-18T00:41:21;49.70;;;20.77;;
60354;SDS011;46198;51.464;-0.066;2022-12-18T00:44:08;54.43;;;22.67;;
60354;SDS011;46198;51.464;-0.066;2022-12-18T00:46:39;60.37;;;21.77;;
60354;SDS011;46198;51.464;-0.066;2022-12-18T00:49:08;58.33;;;21.83;;
60354;SDS011;46198;51.464;-0.066;2022-12-18T00:51:37;48.40;;;20.65;;
60354;SDS011;46198;51.464;-0.066;2022-12-18T00:54:05;48.47;;;20.73;;
60354;SDS011;46198;51.464;-0.066;2022-12-18T00:56:34;58.00;;;18.97;;
60354;SDS011;46198;51.464;-0.066;2022-12-18T00:59:14;54.20;;;19.35;;
60354;SDS011;46198;51.464;-0.066;2022-12-18T01:01:43;52.20;;;18.87;;
60354;SDS011;46198;51.464;-0.066;2022-12-18T01:04:13;55.13;;;21.77;;
60354;SDS011;46198;51.464;-0.066;2022-12-18T01:06:44;52.20;;;21.00;;
60354;SDS011;46198;51.464;-0.066;2022-12-18T01:09:12;54.00;;;21.63;;
60354;SDS011;46198;51.464;-0.066;2022-12-18T01:11:40;54.33;;;20.00;;
60354;SDS011;46198;51.464;-0.066;2022-12-18T01:14:10;52.20;;;20.73;;
60354;SDS011;46198;51.464;-0.066;2022-12-18T01:16:38;52.13;;;19.57;;
60354;SDS011;46198;51.464;-0.066;2022-12-18T01:19:06;48.80;;;19.43;;
60354;SDS011;46198;51.464;-0.066;2022-12-18T01:21:35;48.30;;;20.83;;
60354;SDS011;46198;51.464;-0.066;2022-12-18T01:24:04;50.93;;;21.00;;
60354;SDS011;46198;51.464;-0.066;2022-12-18T01:26:32;45.47;;;18.03;;
60354;SDS011;46198;51.464;-0.066;2022-12-18T01:29:00;49.80;;;18.73;;
60354;SDS011;46198;51.464;-0.066;2022-12-18T01:31:29;47.80;;;18.90;;
60354;SDS011;46198;51.464;-0.066;2022-12-18T01:34:01;48.37;;;19.23;;
60354;SDS011;46198;51.464;-0.066;2022-12-18T01:36:31;47.23;;;18.67;;
60354;SDS011;46198;51.464;-0.066;2022-12-18T01:39:02;54.70;;;19.60;;
60354;SDS011;46198;51.464;-0.066;2022-12-18T01:41:32;54.07;;;20.67;;
60354;SDS011;46198;51.464;-0.066;2022-12-18T01:47:21;47.00;;;18.97;;
60354;SDS011;46198;51.464;-0.066;2022-12-18T01:49:51;50.03;;;18.23;;
60354;SDS011;46198;51.464;-0.066;2022-12-18T01:52:20;50.97;;;19.23;;
60354;SDS011;46198;51.464;-0.066;2022-12-18T01:54:51;52.43;;;19.67;;
60354;SDS011;46198;51.464;-0.066;2022-12-18T01:59:50;43.10;;;17.63;;
60354;SDS011;46198;51.464;-0.066;2022-12-18T02:02:21;49.83;;;19.80;;
60354;SDS011;46198;51.464;-0.066;2022-12-18T02:04:51;51.65;;;18.90;;
60354;SDS011;46198;51.464;-0.066;2022-12-18T02:07:20;48.67;;;19.33;;
60354;SDS011;46198;51.464;-0.066;2022-12-18T02:10:02;49.50;;;19.30;;
60354;SDS011;46198;51.464;-0.066;2022-12-18T02:12:35;53.57;;;20.70;;
60354;SDS011;46198;51.464;-0.066;2022-12-18T02:15:12;51.40;;;19.37;;
60354;SDS011;46198;51.464;-0.066;2022-12-18T02:17:47;52.43;;;20.70;;
60354;SDS011;46198;51.464;-0.066;2022-12-18T02:20:20;51.87;;;18.50;;
60354;SDS011;46198;51.464;-0.066;2022-12-18T02:22:57;48.80;;;18.93;;
60354;SDS011;46198;51.464;-0.066;2022-12-18T02:25:40;48.57;;;19.57;;
60354;SDS011;46198;51.464;-0.066;2022-12-18T02:28:22;40.93;;;16.57;;
60354;SDS011;46198;51.464;-0.066;2022-12-18T02:30:55;52.33;;;19.13;;
60354;SDS011;46198;51.464;-0.066;2022-12-18T02:33:27;49.03;;;18.80;;
60354;SDS011;46198;51.464;-0.066;2022-12-18T02:35:58;45.33;;;16.63;;
60354;SDS011;46198;51.464;-0.066;2022-12-18T02:38:31;46.50;;;17.57;;
60354;SDS011;46198;51.464;-0.066;2022-12-18T02:41:09;48.77;;;18.40;;
60354;SDS011;46198;51.464;-0.066;2022-12-18T02:43:39;51.93;;;18.33;;
60354;SDS011;46198;51.464;-0.066;2022-12-18T02:46:25;47.30;;;18.33;;
60354;SDS011;46198;51.464;-0.066;2022-12-18T02:49:02;47.00;;;19.50;;
60354;SDS011;46198;51.464;-0.066;2022-12-18T02:51:41;45.23;;;17.23;;
60354;SDS011;46198;51.464;-0.066;2022-12-18T02:54:18;49.30;;;19.80;;
60354;SDS011;46198;51.464;-0.066;2022-12-18T02:56:55;47.63;;;17.13;;
60354;SDS011;46198;51.464;-0.066;2022-12-18T02:59:30;47.30;;;18.10;;
60354;SDS011;46198;51.464;-0.066;2022-12-18T03:02:09;46.13;;;17.40;;
60354;SDS011;46198;51.464;-0.066;2022-12-18T03:04:46;55.83;;;18.87;;
60354;SDS011;46198;51.464;-0.066;2022-12-18T03:07:21;48.37;;;17.63;;
60354;SDS011;46198;51.464;-0.066;2022-12-18T03:09:55;46.33;;;16.33;;
60354;SDS011;46198;51.464;-0.066;2022-12-18T03:12:28;44.08;;;16.20;;
60354;SDS011;46198;51.464;-0.066;2022-12-18T03:15:02;45.70;;;17.93;;
60354;SDS011;46198;51.464;-0.066;2022-12-18T03:17:32;42.23;;;16.67;;
60354;SDS011;46198;51.464;-0.066;2022-12-18T03:20:03;46.77;;;16.17;;
60354;SDS011;46198;51.464;-0.066;2022-12-18T03:22:35;44.77;;;16.57;;
60354;SDS011;46198;51.464;-0.066;2022-12-18T03:25:06;47.95;;;16.60;;
60354;SDS011;46198;51.464;-0.066;2022-12-18T03:27:42;44.10;;;17.83;;
60354;SDS011;46198;51.464;-0.066;2022-12-18T03:30:16;38.33;;;15.43;;
60354;SDS011;46198;51.464;-0.066;2022-12-18T03:32:47;35.73;;;14.10;;
60354;SDS011;46198;51.464;-0.066;2022-12-18T03:35:26;42.03;;;15.60;;
60354;SDS011;46198;51.464;-0.066;2022-12-18T03:37:56;44.13;;;17.23;;
60354;SDS011;46198;51.464;-0.066;2022-12-18T03:40:26;40.83;;;14.70;;
60354;SDS011;46198;51.464;-0.066;2022-12-18T03:43:06;39.20;;;14.43;;
60354;SDS011;46198;51.464;-0.066;2022-12-18T03:45:38;42.27;;;15.23;;
60354;SDS011;46198;51.464;-0.066;2022-12-18T03:48:18;35.90;;;14.20;;
60354;SDS011;46198;51.464;-0.066;2022-12-18T03:50:52;37.43;;;13.70;;
60354;SDS011;46198;51.464;-0.066;2022-12-18T03:53:27;34.00;;;11.77;;
60354;SDS011;46198;51.464;-0.066;2022-12-18T03:56:00;33.97;;;13.67;;
60354;SDS011;46198;51.464;-0.066;2022-12-18T03:58:37;41.90;;;13.30;;
60354;SDS011;46198;51.464;-0.066;2022-12-18T04:01:20;37.90;;;13.20;;
60354;SDS011;46198;51.464;-0.066;2022-12-18T04:03:52;29.63;;;12.73;;
60354;SDS011;46198;51.464;-0.066;2022-12-18T04:06:23;40.10;;;14.40;;
60354;SDS011;46198;51.464;-0.066;2022-12-18T04:08:51;35.73;;;13.77;;
60354;SDS011;46198;51.464;-0.066;2022-12-18T04:11:23;39.33;;;13.57;;
60354;SDS011;46198;51.464;-0.066;2022-12-18T04:13:56;33.30;;;13.07;;
60354;SDS011;46198;51.464;-0.066;2022-12-18T04:16:25;33.83;;;14.90;;
60354;SDS011;46198;51.464;-0.066;2022-12-18T04:18:57;38.00;;;14.50;;
60354;SDS011;46198;51.464;-0.066;2022-12-18T04:21:29;36.13;;;12.50;;
60354;SDS011;46198;51.464;-0.066;2022-12-18T04:23:57;36.20;;;13.73;;
60354;SDS011;46198;51.464;-0.066;2022-12-18T04:26:27;40.90;;;14.97;;
60354;SDS011;46198;51.464;-0.066;2022-12-18T04:29:17;36.13;;;12.20;;
60354;SDS011;46198;51.464;-0.066;2022-12-18T04:31:46;37.87;;;14.40;;
60354;SDS011;46198;51.464;-0.066;2022-12-18T04:34:15;35.27;;;12.43;;
60354;SDS011;46198;51.464;-0.066;2022-12-18T04:36:48;35.63;;;15.00;;
60354;SDS011;46198;51.464;-0.066;2022-12-18T04:39:17;33.13;;;14.37;;
60354;SDS011;46198;51.464;-0.066;2022-12-18T04:41:48;32.05;;;12.50;;
60354;SDS011;46198;51.464;-0.066;2022-12-18T04:44:18;33.90;;;13.47;;
60354;SDS011;46198;51.464;-0.066;2022-12-18T04:46:46;31.40;;;13.40;;
60354;SDS011;46198;51.464;-0.066;2022-12-18T04:52:07;35.27;;;13.90;;
60354;SDS011;46198;51.464;-0.066;2022-12-18T04:54:35;37.20;;;13.17;;
60354;SDS011;46198;51.464;-0.066;2022-12-18T04:57:03;36.47;;;15.10;;
60354;SDS011;46198;51.464;-0.066;2022-12-18T04:59:33;37.77;;;13.67;;
60354;SDS011;46198;51.464;-0.066;2022-12-18T05:02:01;28.60;;;12.83;;
60354;SDS011;46198;51.464;-0.066;2022-12-18T05:04:29;33.77;;;12.83;;
60354;SDS011;46198;51.464;-0.066;2022-12-18T05:06:57;35.53;;;14.30;;
60354;SDS011;46198;51.464;-0.066;2022-12-18T05:09:25;37.53;;;13.70;;
60354;SDS011;46198;51.464;-0.066;2022-12-18T05:11:53;35.50;;;13.43;;
60354;SDS011;46198;51.464;-0.066;2022-12-18T05:14:21;33.40;;;13.53;;
60354;SDS011;46198;51.464;-0.066;2022-12-18T05:16:50;37.53;;;14.10;;
60354;SDS011;46198;51.464;-0.066;2022-12-18T05:19:26;34.07;;;12.50;;
60354;SDS011;46198;51.464;-0.066;2022-12-18T05:24:46;37.63;;;14.93;;
60354;SDS011;46198;51.464;-0.066;2022-12-18T05:27:14;40.87;;;13.47;;
60354;SDS011;46198;51.464;-0.066;2022-12-18T05:29:42;32.83;;;13.47;;
60354;SDS011;46198;51.464;-0.066;2022-12-18T05:32:12;37.00;;;14.33;;
60354;SDS011;46198;51.464;-0.066;2022-12-18T05:34:40;37.73;;;13.90;;
60354;SDS011;46198;51.464;-0.066;2022-12-18T05:37:08;35.03;;;13.87;;
60354;SDS011;46198;51.464;-0.066;2022-12-18T05:39:36;35.93;;;13.73;;
60354;SDS011;46198;51.464;-0.066;2022-12-18T05:42:04;33.63;;;13.90;;
60354;SDS011;46198;51.464;-0.066;2022-12-18T05:44:32;28.23;;;13.20;;
60354;SDS011;46198;51.464;-0.066;2022-12-18T05:47:00;34.53;;;13.70;;
60354;SDS011;46198;51.464;-0.066;2022-12-18T05:49:29;38.73;;;14.13;;
60354;SDS011;46198;51.464;-0.066;2022-12-18T05:51:57;30.97;;;14.13;;
60354;SDS011;46198;51.464;-0.066;2022-12-18T05:54:26;31.43;;;12.90;;
60354;SDS011;46198;51.464;-0.066;2022-12-18T05:56:54;32.40;;;14.23;;
60354;SDS011;46198;51.464;-0.066;2022-12-18T05:59:22;44.50;;;16.60;;
60354;SDS011;46198;51.464;-0.066;2022-12-18T06:01:50;36.67;;;15.10;;
60354;SDS011;46198;51.464;-0.066;2022-12-18T06:04:19;33.90;;;14.13;;
60354;SDS011;46198;51.464;-0.066;2022-12-18T06:06:48;40.13;;;15.00;;
60354;SDS011;46198;51.464;-0.066;2022-12-18T06:09:16;36.40;;;14.87;;
60354;SDS011;46198;51.464;-0.066;2022-12-18T06:11:44;43.83;;;15.93;;
60354;SDS011;46198;51.464;-0.066;2022-12-18T06:14:12;34.90;;;14.00;;
60354;SDS011;46198;51.464;-0.066;2022-12-18T06:16:43;40.85;;;16.50;;
60354;SDS011;46198;51.464;-0.066;2022-12-18T06:19:13;36.60;;;15.47;;
60354;SDS011;46198;51.464;-0.066;2022-12-18T06:21:42;38.70;;;15.90;;
60354;SDS011;46198;51.464;-0.066;2022-12-18T06:24:12;39.47;;;15.23;;
60354;SDS011;46198;51.464;-0.066;2022-12-18T06:26:40;37.97;;;16.43;;
60354;SDS011;46198;51.464;-0.066;2022-12-18T06:29:08;43.17;;;16.03;;
60354;SDS011;46198;51.464;-0.066;2022-12-18T06:31:36;31.80;;;13.57;;
60354;SDS011;46198;51.464;-0.066;2022-12-18T06:34:04;31.83;;;14.87;;
60354;SDS011;46198;51.464;-0.066;2022-12-18T06:36:32;38.53;;;15.53;;
60354;SDS011;46198;51.464;-0.066;2022-12-18T06:41:55;34.63;;;14.13;;
60354;SDS011;46198;51.464;-0.066;2022-12-18T06:44:23;45.07;;;16.23;;
60354;SDS011;46198;51.464;-0.066;2022-12-18T06:46:51;42.40;;;14.87;;
60354;SDS011;46198;51.464;-0.066;2022-12-18T06:49:19;29.70;;;13.40;;
60354;SDS011;46198;51.464;-0.066;2022-12-18T06:51:54;32.70;;;13.47;;
60354;SDS011;46198;51.464;-0.066;2022-12-18T06:54:22;34.87;;;14.20;;
60354;SDS011;46198;51.464;-0.066;2022-12-18T06:56:51;37.97;;;15.20;;
60354;SDS011;46198;51.464;-0.066;2022-12-18T06:59:19;38.00;;;15.27;;
60354;SDS011;46198;51.464;-0.066;2022-12-18T07:01:47;41.37;;;15.93;;
60354;SDS011;46198;51.464;-0.066;2022-12-18T07:04:16;34.13;;;13.20;;
60354;SDS011;46198;51.464;-0.066;2022-12-18T07:06:44;36.60;;;14.10;;
60354;SDS011;46198;51.464;-0.066;2022-12-18T07:09:12;33.97;;;13.57;;
60354;SDS011;46198;51.464;-0.066;2022-12-18T07:11:40;40.10;;;14.93;;
60354;SDS011;46198;51.464;-0.066;2022-12-18T07:14:09;39.10;;;14.23;;
60354;SDS011;46198;51.464;-0.066;2022-12-18T07:16:37;38.97;;;14.17;;
60354;SDS011;46198;51.464;-0.066;2022-12-18T07:19:05;32.50;;;14.63;;
60354;SDS011;46198;51.464;-0.066;2022-12-18T07:21:33;33.50;;;14.10;;
60354;SDS011;46198;51.464;-0.066;2022-12-18T07:24:01;34.10;;;14.63;;
60354;SDS011;46198;51.464;-0.066;2022-12-18T07:26:29;38.20;;;14.57;;
60354;SDS011;46198;51.464;-0.066;2022-12-18T07:28:59;37.03;;;13.63;;
60354;SDS011;46198;51.464;-0.066;2022-12-18T07:31:28;39.23;;;15.37;;
60354;SDS011;46198;51.464;-0.066;2022-12-18T07:33:56;31.03;;;14.53;;
60354;SDS011;46198;51.464;-0.066;2022-12-18T07:36:24;31.17;;;13.43;;
60354;SDS011;46198;51.464;-0.066;2022-12-18T07:38:52;36.17;;;14.63;;
60354;SDS011;46198;51.464;-0.066;2022-12-18T07:41:20;36.00;;;14.90;;
60354;SDS011;46198;51.464;-0.066;2022-12-18T07:43:48;35.67;;;14.93;;
60354;SDS011;46198;51.464;-0.066;2022-12-18T07:46:17;37.03;;;14.80;;
60354;SDS011;46198;51.464;-0.066;2022-12-18T07:48:46;29.47;;;13.77;;
60354;SDS011;46198;51.464;-0.066;2022-12-18T07:51:16;36.88;;;14.13;;
60354;SDS011;46198;51.464;-0.066;2022-12-18T07:53:44;35.77;;;13.20;;
60354;SDS011;46198;51.464;-0.066;2022-12-18T07:56:17;37.67;;;13.37;;
60354;SDS011;46198;51.464;-0.066;2022-12-18T07:58:56;31.00;;;12.07;;
60354;SDS011;46198;51.464;-0.066;2022-12-18T08:01:24;36.87;;;13.23;;
60354;SDS011;46198;51.464;-0.066;2022-12-18T08:03:54;39.13;;;14.73;;
60354;SDS011;46198;51.464;-0.066;2022-12-18T08:06:22;29.83;;;12.50;;
60354;SDS011;46198;51.464;-0.066;2022-12-18T08:08:51;30.27;;;12.17;;
60354;SDS011;46198;51.464;-0.066;2022-12-18T08:11:20;34.70;;;14.03;;
60354;SDS011;46198;51.464;-0.066;2022-12-18T08:13:49;33.20;;;13.13;;
60354;SDS011;46198;51.464;-0.066;2022-12-18T08:16:17;34.63;;;15.17;;
60354;SDS011;46198;51.464;-0.066;2022-12-18T08:21:45;36.57;;;13.70;;
60354;SDS011;46198;51.464;-0.066;2022-12-18T08:24:13;35.93;;;14.13;;
60354;SDS011;46198;51.464;-0.066;2022-12-18T08:26:41;40.37;;;16.63;;
60354;SDS011;46198;51.464;-0.066;2022-12-18T08:29:29;39.60;;;14.60;;
60354;SDS011;46198;51.464;-0.066;2022-12-18T08:31:58;36.97;;;14.10;;
60354;SDS011;46198;51.464;-0.066;2022-12-18T08:34:30;37.30;;;15.43;;
60354;SDS011;46198;51.464;-0.066;2022-12-18T08:36:58;34.47;;;14.90;;
60354;SDS011;46198;51.464;-0.066;2022-12-18T08:39:26;38.57;;;15.87;;
60354;SDS011;46198;51.464;-0.066;2022-12-18T08:41:54;38.27;;;15.63;;
60354;SDS011;46198;51.464;-0.066;2022-12-18T08:44:40;37.93;;;14.77;;
60354;SDS011;46198;51.464;-0.066;2022-12-18T08:47:09;40.80;;;16.23;;
60354;SDS011;46198;51.464;-0.066;2022-12-18T08:49:38;49.73;;;16.70;;
60354;SDS011;46198;51.464;-0.066;2022-12-18T08:52:07;45.17;;;16.40;;
60354;SDS011;46198;51.464;-0.066;2022-12-18T08:54:35;43.63;;;16.67;;
60354;SDS011;46198;51.464;-0.066;2022-12-18T08:57:03;37.50;;;16.63;;
60354;SDS011;46198;51.464;-0.066;2022-12-18T08:59:31;37.87;;;15.23;;
60354;SDS011;46198;51.464;-0.066;2022-12-18T09:01:59;41.03;;;16.60;;
60354;SDS011;46198;51.464;-0.066;2022-12-18T09:04:27;37.80;;;15.83;;
60354;SDS011;46198;51.464;-0.066;2022-12-18T09:09:50;37.53;;;16.07;;
60354;SDS011;46198;51.464;-0.066;2022-12-18T09:12:18;33.73;;;15.47;;
60354;SDS011;46198;51.464;-0.066;2022-12-18T09:14:46;36.40;;;15.93;;
60354;SDS011;46198;51.464;-0.066;2022-12-18T09:17:14;39.57;;;16.90;;
60354;SDS011;46198;51.464;-0.066;2022-12-18T09:19:42;35.77;;;16.37;;
60354;SDS011;46198;51.464;-0.066;2022-12-18T09:22:10;35.83;;;15.97;;
60354;SDS011;46198;51.464;-0.066;2022-12-18T09:24:40;37.63;;;16.70;;
60354;SDS011;46198;51.464;-0.066;2022-12-18T09:27:09;34.47;;;16.00;;
60354;SDS011;46198;51.464;-0.066;2022-12-18T09:29:37;38.53;;;16.50;;
60354;SDS011;46198;51.464;-0.066;2022-12-18T09:32:05;40.43;;;16.30;;
60354;SDS011;46198;51.464;-0.066;2022-12-18T09:34:33;39.30;;;16.60;;
60354;SDS011;46198;51.464;-0.066;2022-12-18T09:37:01;39.10;;;15.97;;
60354;SDS011;46198;51.464;-0.066;2022-12-18T09:39:29;42.90;;;18.33;;
60354;SDS011;46198;51.464;-0.066;2022-12-18T09:41:59;45.20;;;16.67;;
60354;SDS011;46198;51.464;-0.066;2022-12-18T09:44:27;52.07;;;18.30;;
60354;SDS011;46198;51.464;-0.066;2022-12-18T09:47:05;41.20;;;17.70;;
60354;SDS011;46198;51.464;-0.066;2022-12-18T09:49:39;40.15;;;16.95;;
60354;SDS011;46198;51.464;-0.066;2022-12-18T09:52:11;45.00;;;18.50;;
60354;SDS011;46198;51.464;-0.066;2022-12-18T09:54:43;41.00;;;17.07;;
60354;SDS011;46198;51.464;-0.066;2022-12-18T09:57:18;44.20;;;17.50;;
60354;SDS011;46198;51.464;-0.066;2022-12-18T09:59:50;42.73;;;16.87;;
60354;SDS011;46198;51.464;-0.066;2022-12-18T10:02:22;40.63;;;17.20;;
60354;SDS011;46198;51.464;-0.066;2022-12-18T10:04:58;41.73;;;17.50;;
60354;SDS011;46198;51.464;-0.066;2022-12-18T10:07:40;34.97;;;16.57;;
60354;SDS011;46198;51.464;-0.066;2022-12-18T10:10:19;41.03;;;16.87;;
60354;SDS011;46198;51.464;-0.066;2022-12-18T10:12:57;39.20;;;15.83;;
60354;SDS011;46198;51.464;-0.066;2022-12-18T10:15:32;38.67;;;16.03;;
60354;SDS011;46198;51.464;-0.066;2022-12-18T10:18:13;41.47;;;18.67;;
60354;SDS011;46198;51.464;-0.066;2022-12-18T10:20:54;38.90;;;15.87;;
60354;SDS011;46198;51.464;-0.066;2022-12-18T10:23:28;36.43;;;17.03;;
60354;SDS011;46198;51.464;-0.066;2022-12-18T10:26:13;37.07;;;17.50;;
60354;SDS011;46198;51.464;-0.066;2022-12-18T10:28:43;37.83;;;17.53;;
60354;SDS011;46198;51.464;-0.066;2022-12-18T10:31:13;41.17;;;16.55;;
60354;SDS011;46198;51.464;-0.066;2022-12-18T10:36:11;37.70;;;16.37;;
60354;SDS011;46198;51.464;-0.066;2022-12-18T10:38:39;34.93;;;16.93;;
60354;SDS011;46198;51.464;-0.066;2022-12-18T10:41:23;37.47;;;17.85;;
60354;SDS011;46198;51.464;-0.066;2022-12-18T10:44:12;39.20;;;17.07;;
60354;SDS011;46198;51.464;-0.066;2022-12-18T10:46:44;38.20;;;16.50;;
60354;SDS011;46198;51.464;-0.066;2022-12-18T10:49:21;38.17;;;17.97;;
60354;SDS011;46198;51.464;-0.066;2022-12-18T10:51:51;39.67;;;16.30;;
60354;SDS011;46198;51.464;-0.066;2022-12-18T10:54:32;41.80;;;16.50;;
60354;SDS011;46198;51.464;-0.066;2022-12-18T10:57:29;42.08;;;18.92;;
60354;SDS011;46198;51.464;-0.066;2022-12-18T11:02:52;38.93;;;17.43;;
60354;SDS011;46198;51.464;-0.066;2022-12-18T11:05:24;36.00;;;17.37;;
60354;SDS011;46198;51.464;-0.066;2022-12-18T11:07:57;38.00;;;16.47;;
60354;SDS011;46198;51.464;-0.066;2022-12-18T11:10:28;35.83;;;16.60;;
60354;SDS011;46198;51.464;-0.066;2022-12-18T11:13:09;34.30;;;15.43;;
60354;SDS011;46198;51.464;-0.066;2022-12-18T11:15:40;42.00;;;15.93;;
60354;SDS011;46198;51.464;-0.066;2022-12-18T11:18:15;35.10;;;15.43;;
60354;SDS011;46198;51.464;-0.066;2022-12-18T11:20:50;32.17;;;15.47;;
60354;SDS011;46198;51.464;-0.066;2022-12-18T11:23:24;36.97;;;15.50;;
60354;SDS011;46198;51.464;-0.066;2022-12-18T11:25:55;32.83;;;15.47;;
60354;SDS011;46198;51.464;-0.066;2022-12-18T11:28:25;36.22;;;16.75;;
60354;SDS011;46198;51.464;-0.066;2022-12-18T11:31:16;31.90;;;15.87;;
60354;SDS011;46198;51.464;-0.066;2022-12-18T11:33:47;30.07;;;14.40;;
60354;SDS011;46198;51.464;-0.066;2022-12-18T11:36:42;35.40;;;15.70;;
60354;SDS011;46198;51.464;-0.066;2022-12-18T11:39:13;30.38;;;13.82;;
60354;SDS011;46198;51.464;-0.066;2022-12-18T11:41:49;34.23;;;15.67;;
60354;SDS011;46198;51.464;-0.066;2022-12-18T11:44:43;33.63;;;15.87;;
60354;SDS011;46198;51.464;-0.066;2022-12-18T11:47:20;32.87;;;16.03;;
60354;SDS011;46198;51.464;-0.066;2022-12-18T11:49:56;32.28;;;15.80;;
60354;SDS011;46198;51.464;-0.066;2022-12-18T11:52:30;31.93;;;14.27;;
60354;SDS011;46198;51.464;-0.066;2022-12-18T11:55:07;30.60;;;16.07;;
60354;SDS011;46198;51.464;-0.066;2022-12-18T11:57:40;38.43;;;17.00;;
60354;SDS011;46198;51.464;-0.066;2022-12-18T12:00:18;38.27;;;16.87;;
60354;SDS011;46198;51.464;-0.066;2022-12-18T12:03:06;34.53;;;17.13;;
60354;SDS011;46198;51.464;-0.066;2022-12-18T12:05:50;37.47;;;16.90;;
60354;SDS011;46198;51.464;-0.066;2022-12-18T12:08:26;35.07;;;16.20;;
60354;SDS011;46198;51.464;-0.066;2022-12-18T12:11:08;36.50;;;17.97;;
60354;SDS011;46198;51.464;-0.066;2022-12-18T12:13:48;38.07;;;16.63;;
60354;SDS011;46198;51.464;-0.066;2022-12-18T12:16:21;34.27;;;16.27;;
60354;SDS011;46198;51.464;-0.066;2022-12-18T12:18:57;32.90;;;16.73;;
60354;SDS011;46198;51.464;-0.066;2022-12-18T12:21:35;30.55;;;14.55;;
60354;SDS011;46198;51.464;-0.066;2022-12-18T12:24:12;31.17;;;14.63;;
60354;SDS011;46198;51.464;-0.066;2022-12-18T12:26:56;35.33;;;16.00;;
60354;SDS011;46198;51.464;-0.066;2022-12-18T12:29:32;35.57;;;16.80;;
60354;SDS011;46198;51.464;-0.066;2022-12-18T12:32:16;32.87;;;15.20;;
60354;SDS011;46198;51.464;-0.066;2022-12-18T12:34:58;34.28;;;16.20;;
60354;SDS011;46198;51.464;-0.066;2022-12-18T12:37:38;37.27;;;16.60;;
60354;SDS011;46198;51.464;-0.066;2022-12-18T12:40:16;32.63;;;15.70;;
60354;SDS011;46198;51.464;-0.066;2022-12-18T12:43:10;33.97;;;14.53;;
60354;SDS011;46198;51.464;-0.066;2022-12-18T12:45:48;29.75;;;13.95;;
60354;SDS011;46198;51.464;-0.066;2022-12-18T12:48:25;28.43;;;14.50;;
60354;SDS011;46198;51.464;-0.066;2022-12-18T12:51:03;30.67;;;15.40;;
60354;SDS011;46198;51.464;-0.066;2022-12-18T12:53:38;28.23;;;14.03;;
60354;SDS011;46198;51.464;-0.066;2022-12-18T12:59:10;31.17;;;14.70;;
60354;SDS011;46198;51.464;-0.066;2022-12-18T13:01:48;27.30;;;14.67;;
60354;SDS011;46198;51.464;-0.066;2022-12-18T13:04:23;29.53;;;14.37;;
60354;SDS011;46198;51.464;-0.066;2022-12-18T13:07:01;31.17;;;14.33;;
60354;SDS011;46198;51.464;-0.066;2022-12-18T13:09:34;33.77;;;14.37;;
60354;SDS011;46198;51.464;-0.066;2022-12-18T13:12:53;32.03;;;15.83;;
60354;SDS011;46198;51.464;-0.066;2022-12-18T13:15:25;31.23;;;14.60;;
60354;SDS011;46198;51.464;-0.066;2022-12-18T13:18:11;31.27;;;14.47;;
60354;SDS011;46198;51.464;-0.066;2022-12-18T13:20:47;26.10;;;12.17;;
60354;SDS011;46198;51.464;-0.066;2022-12-18T13:23:30;15.20;;;9.07;;
60354;SDS011;46198;51.464;-0.066;2022-12-18T13:28:59;30.50;;;15.43;;
60354;SDS011;46198;51.464;-0.066;2022-12-18T13:34:35;26.03;;;12.83;;
60354;SDS011;46198;51.464;-0.066;2022-12-18T13:43:37;27.43;;;13.77;;
60354;SDS011;46198;51.464;-0.066;2022-12-18T13:49:18;27.73;;;14.27;;
60354;SDS011;46198;51.464;-0.066;2022-12-18T13:51:50;30.73;;;13.47;;
60354;SDS011;46198;51.464;-0.066;2022-12-18T13:54:22;26.67;;;14.02;;
60354;SDS011;46198;51.464;-0.066;2022-12-18T13:56:55;23.83;;;13.40;;
60354;SDS011;46198;51.464;-0.066;2022-12-18T13:59:25;25.23;;;11.47;;
60354;SDS011;46198;51.464;-0.066;2022-12-18T14:02:00;24.03;;;12.07;;
60354;SDS011;46198;51.464;-0.066;2022-12-18T14:04:37;19.03;;;11.27;;
60354;SDS011;46198;51.464;-0.066;2022-12-18T14:07:06;24.40;;;11.63;;
60354;SDS011;46198;51.464;-0.066;2022-12-18T14:09:40;24.70;;;11.27;;
60354;SDS011;46198;51.464;-0.066;2022-12-18T14:12:14;25.13;;;11.90;;
60354;SDS011;46198;51.464;-0.066;2022-12-18T14:15:05;21.97;;;11.17;;
60354;SDS011;46198;51.464;-0.066;2022-12-18T14:17:38;16.10;;;8.97;;
60354;SDS011;46198;51.464;-0.066;2022-12-18T14:20:12;15.50;;;7.47;;
60354;SDS011;46198;51.464;-0.066;2022-12-18T14:22:42;22.27;;;10.43;;
60354;SDS011;46198;51.464;-0.066;2022-12-18T14:25:15;20.17;;;10.23;;
60354;SDS011;46198;51.464;-0.066;2022-12-18T14:27:45;19.63;;;10.00;;
60354;SDS011;46198;51.464;-0.066;2022-12-18T14:33:05;23.63;;;11.30;;
60354;SDS011;46198;51.464;-0.066;2022-12-18T14:35:37;20.23;;;10.63;;
60354;SDS011;46198;51.464;-0.066;2022-12-18T14:38:22;16.80;;;9.03;;
60354;SDS011;46198;51.464;-0.066;2022-12-18T14:40:54;17.80;;;9.50;;
60354;SDS011;46198;51.464;-0.066;2022-12-18T14:43:23;22.70;;;10.37;;
60354;SDS011;46198;51.464;-0.066;2022-12-18T14:45:53;21.03;;;9.87;;
60354;SDS011;46198;51.464;-0.066;2022-12-18T14:48:22;19.67;;;10.27;;
60354;SDS011;46198;51.464;-0.066;2022-12-18T14:51:02;22.33;;;11.70;;
60354;SDS011;46198;51.464;-0.066;2022-12-18T14:53:34;23.57;;;10.97;;
60354;SDS011;46198;51.464;-0.066;2022-12-18T14:56:14;22.43;;;10.33;;
60354;SDS011;46198;51.464;-0.066;2022-12-18T14:58:48;17.87;;;8.77;;
60354;SDS011;46198;51.464;-0.066;2022-12-18T15:01:23;19.20;;;10.00;;
60354;SDS011;46198;51.464;-0.066;2022-12-18T15:03:54;19.80;;;9.47;;
60354;SDS011;46198;51.464;-0.066;2022-12-18T15:06:27;19.10;;;8.97;;
60354;SDS011;46198;51.464;-0.066;2022-12-18T15:09:01;23.90;;;9.53;;
60354;SDS011;46198;51.464;-0.066;2022-12-18T15:11:34;20.47;;;10.23;;
60354;SDS011;46198;51.464;-0.066;2022-12-18T15:14:24;18.40;;;9.53;;
60354;SDS011;46198;51.464;-0.066;2022-12-18T15:17:05;23.20;;;10.60;;
60354;SDS011;46198;51.464;-0.066;2022-12-18T15:19:42;12.70;;;6.40;;
60354;SDS011;46198;51.464;-0.066;2022-12-18T15:24:49;16.40;;;9.10;;
60354;SDS011;46198;51.464;-0.066;2022-12-18T15:27:22;14.40;;;8.10;;
60354;SDS011;46198;51.464;-0.066;2022-12-18T15:35:55;15.00;;;8.17;;
60354;SDS011;46198;51.464;-0.066;2022-12-18T15:38:24;14.60;;;6.83;;
60354;SDS011;46198;51.464;-0.066;2022-12-18T15:40:54;17.10;;;7.73;;